createdAt,value
2022-07-28T00:02:30.102Z,101597.13
2022-07-28T00:08:33.741Z,101598.16
2022-07-28T00:14:38.678Z,101609.97
2022-07-28T00:20:42.225Z,101609.09
2022-07-28T00:26:46.858Z,101609.97
2022-07-28T00:32:52.031Z,101615.50
2022-07-28T00:38:55.541Z,101611.72
2022-07-28T00:44:59.236Z,101610.84
2022-07-28T00:51:04.398Z,101603.44
2022-07-28T00:57:07.993Z,101611.72
2022-07-28T01:03:11.876Z,101613.50
2022-07-28T01:09:27.133Z,101606.06
2022-07-28T01:15:34.892Z,101618.16
2022-07-28T01:21:42.510Z,101619.91
2022-07-28T01:28:02.146Z,101612.63
2022-07-28T01:34:11.141Z,101617.16
2022-07-28T01:40:19.144Z,101615.25
2022-07-28T01:46:23.816Z,101613.41
2022-07-28T01:52:31.453Z,101613.50
2022-07-28T01:58:36.716Z,101621.72
2022-07-28T02:04:42.047Z,101608.75
2022-07-28T02:11:09.740Z,101611.53
2022-07-28T02:17:19.084Z,101617.94
2022-07-28T02:23:25.017Z,101614.28
2022-07-28T02:29:50.197Z,101611.41
2022-07-28T02:35:57.642Z,101615.94
2022-07-28T02:42:08.434Z,101618.94
2022-07-28T02:48:16.815Z,101625.25
2022-07-28T02:54:22.180Z,101616.06
2022-07-28T03:00:26.675Z,101639.88
2022-07-28T03:06:31.796Z,101642.63
2022-07-28T03:12:35.403Z,101646.38
2022-07-28T03:18:38.938Z,101641.84
2022-07-28T03:24:48.560Z,101657.34
2022-07-28T03:30:57.749Z,101658.13
2022-07-28T03:37:04.057Z,101649.06
2022-07-28T03:43:10.890Z,101664.78
2022-07-28T03:49:14.558Z,101662.78
2022-07-28T03:55:18.595Z,101653.59
2022-07-28T04:01:23.622Z,101658.13
2022-07-28T04:07:27.464Z,101663.66
2022-07-28T04:13:32.336Z,101666.28
2022-07-28T04:19:37.321Z,101680.00
2022-07-28T04:25:40.933Z,101672.47
2022-07-28T04:31:44.807Z,101686.09
2022-07-28T04:37:49.792Z,101688.88
2022-07-28T04:43:53.487Z,101685.72
2022-07-28T04:49:57.634Z,101684.94
2022-07-28T04:56:03.015Z,101683.03
2022-07-28T05:02:07.578Z,101691.09
2022-07-28T05:08:11.148Z,101698.53
2022-07-28T05:14:16.280Z,101703.03
2022-07-28T05:20:20.329Z,101712.59
2022-07-28T05:26:26.909Z,101716.13
2022-07-28T05:32:31.877Z,101726.31
2022-07-28T05:38:35.437Z,101733.06
2022-07-28T05:44:39.021Z,101736.34
2022-07-28T05:50:43.960Z,101739.00
2022-07-28T05:56:50.319Z,101749.50
2022-07-28T06:02:54.263Z,101750.06
2022-07-28T06:08:59.251Z,101766.88
2022-07-28T06:15:05.605Z,101769.84
2022-07-28T06:21:09.163Z,101783.34
2022-07-28T06:27:14.111Z,101787.00
2022-07-28T06:33:18.414Z,101787.13
2022-07-28T06:39:22.102Z,101792.84
2022-07-28T06:45:27.122Z,101796.53
2022-07-28T06:51:30.938Z,101796.63
2022-07-28T06:57:34.719Z,101798.63
2022-07-28T07:03:39.701Z,101803.56
2022-07-28T07:09:43.219Z,101820.50
2022-07-28T07:15:46.796Z,101823.19
2022-07-28T07:21:52.010Z,101817.09
2022-07-28T07:27:55.551Z,101824.16
2022-07-28T07:33:59.219Z,101830.25
2022-07-28T07:40:06.274Z,101836.44
2022-07-28T07:46:09.884Z,101845.84
2022-07-28T07:52:13.767Z,101849.69
2022-07-28T07:58:18.851Z,101853.47
2022-07-28T08:04:25.324Z,101854.34
2022-07-28T08:10:29.190Z,101856.03
2022-07-28T08:16:34.303Z,101862.97
2022-07-28T08:22:48.541Z,101862.47
2022-07-28T08:28:52.599Z,101855.47
2022-07-28T08:35:29.975Z,101856.03
2022-07-28T08:41:33.509Z,101864.22
2022-07-28T08:47:58.759Z,101872.28
2022-07-28T08:54:03.949Z,101871.28
2022-07-28T09:00:09.803Z,101881.03
2022-07-28T09:06:13.650Z,101879.25
2022-07-28T09:12:19.086Z,101887.41
2022-07-28T09:18:30.839Z,101888.50
2022-07-28T09:24:36.071Z,101893.75
2022-07-28T09:30:53.427Z,101899.50
2022-07-28T09:36:58.485Z,101904.13
2022-07-28T09:43:02.049Z,101911.91
2022-07-28T09:49:07.164Z,101918.41
2022-07-28T09:55:13.493Z,101922.28
2022-07-28T10:01:20.922Z,101920.84
2022-07-28T10:07:26.098Z,101919.94
2022-07-28T10:13:29.680Z,101925.16
2022-07-28T10:19:33.253Z,101934.00
2022-07-28T10:25:41.178Z,101937.44
2022-07-28T10:31:49.798Z,101939.09
2022-07-28T10:38:00.035Z,101943.44
2022-07-28T10:44:05.483Z,101952.72
2022-07-28T10:50:10.288Z,101957.59
2022-07-28T10:56:18.939Z,101951.81
2022-07-28T11:02:47.069Z,101946.19
2022-07-28T11:08:52.918Z,101949.06
2022-07-28T11:14:56.609Z,101946.50
2022-07-28T11:21:11.558Z,101959.69
2022-07-28T11:27:20.191Z,101955.13
2022-07-28T11:33:25.061Z,101947.09
2022-07-28T11:39:43.534Z,101945.28
2022-07-28T11:45:51.420Z,101952.72
2022-07-28T11:52:14.059Z,101949.72
2022-07-28T11:58:27.653Z,101951.06
2022-07-28T12:04:31.782Z,101949.72
2022-07-28T12:17:01.172Z,101943.00
2022-07-28T12:23:07.113Z,101951.50
2022-07-28T12:29:13.401Z,101948.22
2022-07-28T12:35:18.620Z,101945.38
2022-07-28T12:41:22.900Z,101946.47
2022-07-28T12:47:28.204Z,101943.31
2022-07-28T12:53:33.201Z,101947.47
2022-07-28T12:59:38.543Z,101952.28
2022-07-28T13:05:59.792Z,101940.41
2022-07-28T13:12:04.931Z,101940.31
2022-07-28T13:18:08.942Z,101940.59
2022-07-28T13:24:14.738Z,101940.38
2022-07-28T13:30:20.124Z,101954.31
2022-07-28T13:36:23.762Z,101948.75
2022-07-28T13:42:27.305Z,101948.75
2022-07-28T13:48:32.924Z,101956.19
2022-07-28T13:54:37.214Z,101960.88
2022-07-28T14:00:40.893Z,101951.50
2022-07-28T14:06:46.063Z,101947.34
2022-07-28T14:12:49.630Z,101943.31
2022-07-28T14:18:54.727Z,101946.97
2022-07-28T14:24:59.847Z,101945.34
2022-07-28T14:31:04.268Z,101943.44
2022-07-28T14:37:08.954Z,101949.63
2022-07-28T14:43:14.390Z,101944.94
2022-07-28T14:49:18.021Z,101950.25
2022-07-28T14:55:21.726Z,101948.88
2022-07-28T15:01:27.309Z,101942.44
2022-07-28T15:07:39.547Z,101942.81
2022-07-28T15:13:43.090Z,101945.47
2022-07-28T15:19:51.144Z,101948.25
2022-07-28T15:25:56.276Z,101946.03
2022-07-28T15:32:01.022Z,101947.91
2022-07-28T15:38:09.214Z,101939.81
2022-07-28T15:44:15.033Z,101937.41
2022-07-28T15:50:18.800Z,101933.94
2022-07-28T15:56:23.741Z,101942.09
2022-07-28T16:02:28.058Z,101941.97
2022-07-28T16:08:31.658Z,101942.91
2022-07-28T16:14:36.794Z,101940.22
2022-07-28T16:20:41.097Z,101928.38
2022-07-28T16:26:44.673Z,101932.34
2022-07-28T16:32:49.613Z,101934.59
2022-07-28T16:38:53.422Z,101932.91
2022-07-28T16:44:57.325Z,101936.81
2022-07-28T16:51:02.885Z,101941.59
2022-07-28T16:57:07.398Z,101943.97
2022-07-28T17:03:11.321Z,101934.22
2022-07-28T17:09:16.902Z,101930.69
2022-07-28T17:15:22.610Z,101934.47
2022-07-28T17:21:26.874Z,101936.25
2022-07-28T17:27:37.924Z,101939.13
2022-07-28T17:33:42.686Z,101942.88
2022-07-28T17:39:46.232Z,101948.28
2022-07-28T17:45:51.718Z,101952.38
2022-07-28T17:51:55.370Z,101956.53
2022-07-28T17:57:59.083Z,101954.97
2022-07-28T18:04:04.059Z,101948.16
2022-07-28T18:10:08.719Z,101959.34
2022-07-28T18:16:12.328Z,101952.97
2022-07-28T18:22:17.323Z,101955.78
2022-07-28T18:28:20.917Z,101956.50
2022-07-28T18:34:25.276Z,101956.63
2022-07-28T18:40:30.680Z,101962.41
2022-07-28T18:46:34.269Z,101955.03
2022-07-28T18:52:40.804Z,101965.69
2022-07-28T18:58:45.820Z,101958.81
2022-07-28T19:04:52.023Z,101977.75
2022-07-28T19:10:55.951Z,101967.66
2022-07-28T19:17:01.662Z,101976.41
2022-07-28T19:23:05.715Z,101979.16
2022-07-28T19:29:12.233Z,101973.19
2022-07-28T19:35:17.220Z,101973.09
2022-07-28T19:41:21.284Z,101979.28
2022-07-28T19:47:25.004Z,101972.22
2022-07-28T19:53:31.806Z,101972.75
2022-07-28T19:59:36.372Z,101974.88
2022-07-28T20:05:40.592Z,101976.88
2022-07-28T20:11:45.749Z,101990.91
2022-07-28T20:17:50.905Z,101984.81
2022-07-28T20:23:55.768Z,101990.81
2022-07-28T20:30:01.662Z,101996.34
2022-07-28T20:36:05.747Z,101997.44
2022-07-28T20:42:11.711Z,102001.19
2022-07-28T20:48:16.706Z,102006.38
2022-07-28T20:54:21.009Z,102000.84
2022-07-28T21:00:25.129Z,102005.53
2022-07-28T21:06:30.054Z,101996.44
2022-07-28T21:12:33.979Z,102003.94
2022-07-28T21:18:37.666Z,102009.69
2022-07-28T21:24:42.646Z,102013.44
2022-07-28T21:30:46.313Z,102023.19
2022-07-28T21:36:49.888Z,102024.28
2022-07-28T21:42:54.771Z,102027.38
2022-07-28T21:48:59.772Z,102030.56
2022-07-28T21:55:03.403Z,102051.28
2022-07-28T22:01:08.387Z,102038.56
2022-07-28T22:07:11.975Z,102046.13
2022-07-28T22:13:18.763Z,102052.25
2022-07-28T22:19:23.696Z,102051.78
2022-07-28T22:25:28.477Z,102054.81
2022-07-28T22:31:32.075Z,102062.06
2022-07-28T22:37:37.070Z,102066.09
2022-07-28T22:43:40.617Z,102058.59
2022-07-28T22:49:44.259Z,102063.44
2022-07-28T22:55:49.311Z,102064.72
2022-07-28T23:01:52.994Z,102069.03
2022-07-28T23:07:57.355Z,102066.59
2022-07-28T23:14:03.801Z,102066.31
2022-07-28T23:20:09.499Z,102064.72
2022-07-28T23:26:13.210Z,102065.81
2022-07-28T23:32:18.209Z,102051.00
2022-07-28T23:38:21.829Z,102047.44
2022-07-28T23:44:25.450Z,102050.09
2022-07-28T23:50:30.437Z,102053.88
2022-07-28T23:56:34.066Z,102054.88
